WetterOnline ( http://www.wetteronline.de )

Wetter aktuell Bremen

Aktuelles Wetter: Friesoythe-Altenoythe (6m)

6-stündlich | Neueste Meldungen
Ortszeit Temperatur Wetter
Fr, 19.10. 20:00 9.1° C bewölkt
Fr, 19.10. 14:00 12.3° C bedeckt
Fr, 19.10. 8:00 6.4° C bedeckt
Fr, 19.10. 2:00 3.7° C Nebel
Do, 18.10. 20:00 10.1° C wolkig
Do, 18.10. 14:00 14.1° C bedeckt
Do, 18.10. 8:00 10.9° C Sprühregen
Do, 18.10. 2:00 9.4° C Nebel
Ortszeit Temperatur Wetter
Sa, 20.10. 0:00 5.4° C bewölkt
Fr, 19.10. 23:50 5.4° C bewölkt
Fr, 19.10. 23:40 5.8° C bewölkt
Fr, 19.10. 23:30 6.3° C bewölkt
Fr, 19.10. 23:20 6.3° C bewölkt
Fr, 19.10. 23:10 6.1° C bewölkt
Fr, 19.10. 23:00 6.5° C bewölkt
Fr, 19.10. 22:30 6.7° C bewölkt
Fr, 19.10. 22:00 6.4° C bedeckt
Fr, 19.10. 21:30 7.1° C wolkig
Fr, 19.10. 21:00 7.9° C bewölkt
Ortszeit Relative Feuchte Sichtweite
Fr, 19.10. 20:00 74% 45 km
Fr, 19.10. 14:00 60% 40 km
Fr, 19.10. 8:00 95% 26 km
Fr, 19.10. 2:00 99% 0.3 km
Do, 18.10. 20:00 82% 50 km
Do, 18.10. 14:00 74% 45 km
Do, 18.10. 8:00 99% 2.2 km
Do, 18.10. 2:00 98% 0.2 km
Ortszeit Relative Feuchte Sichtweite
Sa, 20.10. 0:00 93% 30 km
Fr, 19.10. 23:50 93% -
Fr, 19.10. 23:40 90% -
Fr, 19.10. 23:30 91% 35 km
Fr, 19.10. 23:20 91% -
Fr, 19.10. 23:10 91% -
Fr, 19.10. 23:00 88% 35 km
Fr, 19.10. 22:30 87% 30 km
Fr, 19.10. 22:00 88% 40 km
Fr, 19.10. 21:30 85% 40 km
Fr, 19.10. 21:00 79% 45 km
Ortszeit Niederschlagsmenge Niederschlagsart
Fr, 19.10. 20:00 0.0 l/m2 in 12 Std. -
Fr, 19.10. 14:00 0.0 l/m2 in 6 Std. -
Fr, 19.10. 8:00 0.0 l/m2 in 12 Std. -
Fr, 19.10. 2:00 0.0 l/m2 in 6 Std. -
Do, 18.10. 20:00 0.2 l/m2 in 12 Std. -
Do, 18.10. 14:00 0.2 l/m2 in 6 Std. Regen
Do, 18.10. 8:00 0.1 l/m2 in 12 Std. Regen
Do, 18.10. 2:00 0.0 l/m2 in 6 Std. -
Ortszeit Niederschlagsmenge Niederschlagsart
Sa, 20.10. 0:00 0.0 l/m2 in 1 Std. -
Fr, 19.10. 23:50 keine Meldung -
Fr, 19.10. 23:40 keine Meldung -
Fr, 19.10. 23:30 0.0 l/m2 in 1 Std. -
Fr, 19.10. 23:20 keine Meldung -
Fr, 19.10. 23:10 keine Meldung -
Fr, 19.10. 23:00 0.0 l/m2 in 1 Std. -
Fr, 19.10. 22:30 0.0 l/m2 in 1 Std. -
Fr, 19.10. 22:00 0.0 l/m2 in 1 Std. -
Fr, 19.10. 21:30 0.0 l/m2 in 1 Std. -
Fr, 19.10. 21:00 0.0 l/m2 in 1 Std. -
Ortszeit Stärke Spitze Richtung
km/h Bft. km/h Grad Sektor
Fr, 19.10. 20:00 6 1 17 30° NO
Fr, 19.10. 14:00 4 1 14 60° NO
Fr, 19.10. 8:00 4 1 7 70° O
Fr, 19.10. 2:00 0 0 22 - -
Do, 18.10. 20:00 11 2 32 360° N
Do, 18.10. 14:00 17 3 28 10° N
Do, 18.10. 8:00 7 2 7 290° W
Do, 18.10. 2:00 4 1 11 270° W
Ortszeit Stärke Spitze Richtung
km/h Bft. km/h Grad Sektor
Sa, 20.10. 0:00 4 1 7 270° W
Fr, 19.10. 23:50 4 1 - 270° W
Fr, 19.10. 23:40 4 1 - 320° NW
Fr, 19.10. 23:30 6 1 7 350° N
Fr, 19.10. 23:20 6 1 - 350° N
Fr, 19.10. 23:10 6 1 - 330° NW
Fr, 19.10. 23:00 2 1 6 320° NW
Fr, 19.10. 22:30 4 1 7 330° NW
Fr, 19.10. 22:00 6 1 7 340° N
Fr, 19.10. 21:30 4 1 7 50° NO
Fr, 19.10. 21:00 4 1 7 70° O
Ortszeit Untergrenze Bedeckung Gattung
total tief tief mittel hoch
Fr, 19.10. 20:00 1020 m 8/8 7/8 - - -
Fr, 19.10. 14:00 900 m 8/8 8/8 - - -
Fr, 19.10. 8:00 990 m 8/8 8/8 - - -
Fr, 19.10. 2:00 1050 m 3/8 3/8 - - -
Do, 18.10. 20:00 900 m 6/8 - - - -
Do, 18.10. 14:00 570 m 8/8 8/8 - - -
Do, 18.10. 8:00 60 m 8/8 8/8 - - -
Do, 18.10. 2:00 <30 m 8/8 2/8 - - -
Ortszeit Bedeckungsgrad in Achtel und Wolkenuntergrenze
Sa, 20.10. 0:00 6(1110m) 8(8100m)
Fr, 19.10. 23:50 6(1110m) 8(8100m)
Fr, 19.10. 23:40 7(1110m) 8(7800m)
Fr, 19.10. 23:30 7(1080m) 8(7800m)
Fr, 19.10. 23:20 7(1080m) 8(7800m)
Fr, 19.10. 23:10 7(1080m) 7(7500m) 8(8100m)
Fr, 19.10. 23:00 7(1080m) 8(7500m)
Fr, 19.10. 22:30 7(1080m) 8(6600m) 8(7200m)
Fr, 19.10. 22:00 8(1020m) 8(7500m) 8(8400m)
Fr, 19.10. 21:30 2(1050m) 8(7500m) 8(8400m)
Fr, 19.10. 21:00 7(1020m) 7(7200m) 8(7800m)
Ortszeit Luftdruck NN (hPa) Tendenz (hPa in 3 Std.)
Fr, 19.10. 20:00 1027 + 1,1
Fr, 19.10. 14:00 1027 - 0,8
Fr, 19.10. 8:00 1027 + 0,2
Fr, 19.10. 2:00 1027 - 0,4
Do, 18.10. 20:00 1026 + 1,1
Do, 18.10. 14:00 1025 + 0,9
Do, 18.10. 8:00 1023 + 0,6
Do, 18.10. 2:00 1022 + 0,6
Ortszeit Luftdruck NN (hPa) Tendenz (hPa in 3 Std.)
Sa, 20.10. 0:00 1027 + 0,5
Fr, 19.10. 23:50 1027 keine Meldung
Fr, 19.10. 23:40 1027 keine Meldung
Fr, 19.10. 23:30 1027 + 0,6
Fr, 19.10. 23:20 1027 keine Meldung
Fr, 19.10. 23:10 1027 keine Meldung
Fr, 19.10. 23:00 1027 + 0,8
Fr, 19.10. 22:30 1027 + 1,2
Fr, 19.10. 22:00 1027 + 1,3
Fr, 19.10. 21:30 1027 + 1,1
Fr, 19.10. 21:00 1027 + 1,2
Ortszeit Schneehöhe (cm)
Fr, 19.10. 20:00 0
Fr, 19.10. 14:00 0
Fr, 19.10. 8:00 0
Fr, 19.10. 2:00 0
Do, 18.10. 20:00 0
Do, 18.10. 14:00 0
Do, 18.10. 8:00 0
Do, 18.10. 2:00 0
Ortszeit Schneehöhe (cm)
Sa, 20.10. 0:00 0
Fr, 19.10. 23:50 0
Fr, 19.10. 23:40 0
Fr, 19.10. 23:30 0
Fr, 19.10. 23:20 0
Fr, 19.10. 23:10 0
Fr, 19.10. 23:00 0
Fr, 19.10. 22:30 0
Fr, 19.10. 22:00 0
Fr, 19.10. 21:30 0
Fr, 19.10. 21:00 0
Link zu dieser Seite / Seite empfehlen

Das Wetter in ...